sensor_id;sensor_type;location;lat;lon;timestamp;P1;durP1;ratioP1;P2;durP2;ratioP2
9328;SDS011;4703;48.748;19.142;2024-01-15T06:09:23;29.30;;;17.57;;
9328;SDS011;4703;48.748;19.142;2024-01-15T06:28:12;24.80;;;14.07;;
9328;SDS011;4703;48.748;19.142;2024-01-15T06:34:59;24.80;;;14.17;;
9328;SDS011;4703;48.748;19.142;2024-01-15T06:37:58;26.27;;;16.37;;
9328;SDS011;4703;48.748;19.142;2024-01-15T06:40:45;32.13;;;17.30;;
9328;SDS011;4703;48.748;19.142;2024-01-15T06:43:42;28.73;;;15.90;;
9328;SDS011;4703;48.748;19.142;2024-01-15T06:46:09;25.13;;;16.57;;
9328;SDS011;4703;48.748;19.142;2024-01-15T06:48:44;24.93;;;15.73;;
9328;SDS011;4703;48.748;19.142;2024-01-15T06:51:13;23.53;;;16.80;;
9328;SDS011;4703;48.748;19.142;2024-01-15T06:53:44;27.40;;;16.63;;
9328;SDS011;4703;48.748;19.142;2024-01-15T06:56:15;28.60;;;17.83;;
9328;SDS011;4703;48.748;19.142;2024-01-15T06:58:43;30.57;;;18.20;;
9328;SDS011;4703;48.748;19.142;2024-01-15T07:05:46;31.70;;;18.20;;
9328;SDS011;4703;48.748;19.142;2024-01-15T07:08:57;26.67;;;16.27;;
9328;SDS011;4703;48.748;19.142;2024-01-15T07:11:48;29.53;;;16.70;;
9328;SDS011;4703;48.748;19.142;2024-01-15T07:14:15;36.43;;;18.23;;
9328;SDS011;4703;48.748;19.142;2024-01-15T07:17:01;30.93;;;16.57;;
9328;SDS011;4703;48.748;19.142;2024-01-15T08:29:59;29.37;;;16.80;;
9328;SDS011;4703;48.748;19.142;2024-01-15T08:32:26;27.70;;;16.43;;
9328;SDS011;4703;48.748;19.142;2024-01-15T08:34:53;34.43;;;18.17;;
9328;SDS011;4703;48.748;19.142;2024-01-15T08:37:21;24.03;;;16.47;;
9328;SDS011;4703;48.748;19.142;2024-01-15T08:39:48;26.03;;;15.90;;
9328;SDS011;4703;48.748;19.142;2024-01-15T08:42:17;18.60;;;14.20;;
9328;SDS011;4703;48.748;19.142;2024-01-15T08:44:44;24.97;;;16.07;;
9328;SDS011;4703;48.748;19.142;2024-01-15T08:47:14;27.13;;;16.73;;
9328;SDS011;4703;48.748;19.142;2024-01-15T08:49:42;29.60;;;18.07;;
9328;SDS011;4703;48.748;19.142;2024-01-15T08:52:10;25.07;;;16.40;;
9328;SDS011;4703;48.748;19.142;2024-01-15T08:54:37;28.87;;;17.17;;
9328;SDS011;4703;48.748;19.142;2024-01-15T08:57:04;33.90;;;18.50;;
9328;SDS011;4703;48.748;19.142;2024-01-15T08:59:31;34.93;;;19.40;;
9328;SDS011;4703;48.748;19.142;2024-01-15T09:01:58;32.20;;;18.83;;
9328;SDS011;4703;48.748;19.142;2024-01-15T09:04:26;35.40;;;21.27;;
9328;SDS011;4703;48.748;19.142;2024-01-15T09:06:53;26.43;;;17.80;;
9328;SDS011;4703;48.748;19.142;2024-01-15T09:09:20;27.90;;;18.40;;
9328;SDS011;4703;48.748;19.142;2024-01-15T09:11:47;27.97;;;17.33;;
9328;SDS011;4703;48.748;19.142;2024-01-15T09:14:14;27.30;;;17.70;;
9328;SDS011;4703;48.748;19.142;2024-01-15T09:16:44;23.80;;;17.60;;
9328;SDS011;4703;48.748;19.142;2024-01-15T09:19:11;26.50;;;16.37;;
9328;SDS011;4703;48.748;19.142;2024-01-15T09:21:39;24.33;;;16.13;;
9328;SDS011;4703;48.748;19.142;2024-01-15T09:24:06;27.83;;;18.00;;
9328;SDS011;4703;48.748;19.142;2024-01-15T09:26:33;25.13;;;15.60;;
9328;SDS011;4703;48.748;19.142;2024-01-15T09:29:00;29.73;;;17.33;;
9328;SDS011;4703;48.748;19.142;2024-01-15T09:31:29;22.70;;;14.30;;
9328;SDS011;4703;48.748;19.142;2024-01-15T09:33:56;29.60;;;17.00;;
9328;SDS011;4703;48.748;19.142;2024-01-15T09:36:24;25.63;;;15.00;;
9328;SDS011;4703;48.748;19.142;2024-01-15T09:38:52;30.83;;;15.63;;
9328;SDS011;4703;48.748;19.142;2024-01-15T09:41:19;24.60;;;14.10;;
9328;SDS011;4703;48.748;19.142;2024-01-15T09:43:46;24.00;;;15.50;;
9328;SDS011;4703;48.748;19.142;2024-01-15T09:46:14;31.53;;;17.40;;
9328;SDS011;4703;48.748;19.142;2024-01-15T09:48:41;30.90;;;16.70;;
9328;SDS011;4703;48.748;19.142;2024-01-15T09:51:09;25.93;;;16.60;;
9328;SDS011;4703;48.748;19.142;2024-01-15T09:53:36;25.37;;;14.80;;
9328;SDS011;4703;48.748;19.142;2024-01-15T09:56:04;19.07;;;12.30;;
9328;SDS011;4703;48.748;19.142;2024-01-15T09:58:31;21.30;;;13.57;;
9328;SDS011;4703;48.748;19.142;2024-01-15T10:00:59;18.00;;;11.37;;
9328;SDS011;4703;48.748;19.142;2024-01-15T10:03:34;22.00;;;13.87;;
9328;SDS011;4703;48.748;19.142;2024-01-15T10:06:01;16.40;;;10.10;;
9328;SDS011;4703;48.748;19.142;2024-01-15T10:08:28;12.93;;;9.80;;
9328;SDS011;4703;48.748;19.142;2024-01-15T10:10:55;13.53;;;10.37;;
9328;SDS011;4703;48.748;19.142;2024-01-15T10:13:22;14.73;;;9.60;;
9328;SDS011;4703;48.748;19.142;2024-01-15T10:15:49;16.27;;;10.50;;
9328;SDS011;4703;48.748;19.142;2024-01-15T10:18:17;17.83;;;10.60;;
9328;SDS011;4703;48.748;19.142;2024-01-15T10:20:45;20.40;;;13.57;;
9328;SDS011;4703;48.748;19.142;2024-01-15T10:23:12;17.70;;;11.37;;
9328;SDS011;4703;48.748;19.142;2024-01-15T10:25:43;14.50;;;9.73;;
9328;SDS011;4703;48.748;19.142;2024-01-15T10:28:10;19.60;;;10.90;;
9328;SDS011;4703;48.748;19.142;2024-01-15T10:30:37;17.00;;;10.67;;
9328;SDS011;4703;48.748;19.142;2024-01-15T10:33:04;12.27;;;10.00;;
9328;SDS011;4703;48.748;19.142;2024-01-15T10:35:33;14.13;;;10.20;;
9328;SDS011;4703;48.748;19.142;2024-01-15T10:38:01;17.60;;;10.77;;
9328;SDS011;4703;48.748;19.142;2024-01-15T10:40:29;13.77;;;10.40;;
9328;SDS011;4703;48.748;19.142;2024-01-15T10:42:56;16.57;;;11.73;;
9328;SDS011;4703;48.748;19.142;2024-01-15T10:45:24;15.57;;;9.77;;
9328;SDS011;4703;48.748;19.142;2024-01-15T10:47:51;13.30;;;9.43;;
9328;SDS011;4703;48.748;19.142;2024-01-15T10:50:20;16.70;;;11.30;;
9328;SDS011;4703;48.748;19.142;2024-01-15T10:52:47;19.97;;;10.40;;
9328;SDS011;4703;48.748;19.142;2024-01-15T10:55:14;18.70;;;11.43;;
9328;SDS011;4703;48.748;19.142;2024-01-15T10:57:45;18.37;;;10.10;;
9328;SDS011;4703;48.748;19.142;2024-01-15T11:00:16;14.00;;;10.57;;
9328;SDS011;4703;48.748;19.142;2024-01-15T11:02:44;19.70;;;10.33;;
9328;SDS011;4703;48.748;19.142;2024-01-15T11:05:11;15.57;;;10.30;;
9328;SDS011;4703;48.748;19.142;2024-01-15T11:07:39;16.50;;;9.60;;
9328;SDS011;4703;48.748;19.142;2024-01-15T11:10:08;13.57;;;9.10;;
9328;SDS011;4703;48.748;19.142;2024-01-15T11:13:22;17.50;;;11.17;;
9328;SDS011;4703;48.748;19.142;2024-01-15T11:16:07;17.10;;;10.90;;
9328;SDS011;4703;48.748;19.142;2024-01-15T11:18:39;14.23;;;9.40;;
9328;SDS011;4703;48.748;19.142;2024-01-15T11:23:45;16.77;;;10.20;;
9328;SDS011;4703;48.748;19.142;2024-01-15T11:43:00;20.13;;;10.40;;
9328;SDS011;4703;48.748;19.142;2024-01-15T11:45:27;21.00;;;9.80;;
9328;SDS011;4703;48.748;19.142;2024-01-15T11:48:09;18.10;;;11.10;;
9328;SDS011;4703;48.748;19.142;2024-01-15T11:50:46;14.50;;;10.60;;
9328;SDS011;4703;48.748;19.142;2024-01-15T11:56:23;16.10;;;9.10;;
9328;SDS011;4703;48.748;19.142;2024-01-15T11:58:51;13.53;;;8.43;;
9328;SDS011;4703;48.748;19.142;2024-01-15T12:01:18;15.37;;;10.00;;
9328;SDS011;4703;48.748;19.142;2024-01-15T12:03:47;16.83;;;10.37;;
9328;SDS011;4703;48.748;19.142;2024-01-15T12:06:14;12.70;;;8.90;;
9328;SDS011;4703;48.748;19.142;2024-01-15T12:08:41;10.33;;;6.30;;
9328;SDS011;4703;48.748;19.142;2024-01-15T12:11:10;10.03;;;7.80;;
9328;SDS011;4703;48.748;19.142;2024-01-15T12:13:40;9.67;;;6.87;;
9328;SDS011;4703;48.748;19.142;2024-01-15T12:16:07;12.40;;;9.20;;
9328;SDS011;4703;48.748;19.142;2024-01-15T12:18:34;13.60;;;8.33;;
9328;SDS011;4703;48.748;19.142;2024-01-15T12:21:03;10.83;;;8.57;;
9328;SDS011;4703;48.748;19.142;2024-01-15T12:23:30;10.87;;;7.90;;
9328;SDS011;4703;48.748;19.142;2024-01-15T12:25:57;10.30;;;8.27;;
9328;SDS011;4703;48.748;19.142;2024-01-15T12:28:27;9.50;;;6.67;;
9328;SDS011;4703;48.748;19.142;2024-01-15T12:30:55;9.90;;;6.53;;
9328;SDS011;4703;48.748;19.142;2024-01-15T12:33:22;10.37;;;7.27;;
9328;SDS011;4703;48.748;19.142;2024-01-15T12:35:52;7.07;;;6.30;;
9328;SDS011;4703;48.748;19.142;2024-01-15T12:38:19;12.67;;;7.40;;
9328;SDS011;4703;48.748;19.142;2024-01-15T12:40:47;15.50;;;9.13;;
9328;SDS011;4703;48.748;19.142;2024-01-15T12:43:14;13.27;;;7.90;;
9328;SDS011;4703;48.748;19.142;2024-01-15T12:45:41;16.63;;;11.10;;
9328;SDS011;4703;48.748;19.142;2024-01-15T12:48:10;13.63;;;10.40;;
9328;SDS011;4703;48.748;19.142;2024-01-15T12:50:38;12.87;;;9.33;;
9328;SDS011;4703;48.748;19.142;2024-01-15T12:53:05;10.27;;;7.63;;
9328;SDS011;4703;48.748;19.142;2024-01-15T12:55:32;11.27;;;8.20;;
9328;SDS011;4703;48.748;19.142;2024-01-15T12:58:00;14.43;;;8.73;;
9328;SDS011;4703;48.748;19.142;2024-01-15T13:00:27;11.97;;;8.10;;
9328;SDS011;4703;48.748;19.142;2024-01-15T13:02:54;17.60;;;9.97;;
9328;SDS011;4703;48.748;19.142;2024-01-15T13:05:23;15.53;;;9.13;;
9328;SDS011;4703;48.748;19.142;2024-01-15T13:07:53;10.20;;;6.90;;
9328;SDS011;4703;48.748;19.142;2024-01-15T13:10:20;12.07;;;7.90;;
9328;SDS011;4703;48.748;19.142;2024-01-15T13:12:51;10.63;;;7.93;;
9328;SDS011;4703;48.748;19.142;2024-01-15T13:15:18;10.73;;;7.60;;
9328;SDS011;4703;48.748;19.142;2024-01-15T13:17:45;9.23;;;7.17;;
9328;SDS011;4703;48.748;19.142;2024-01-15T13:20:12;11.13;;;7.07;;
9328;SDS011;4703;48.748;19.142;2024-01-15T13:22:40;11.73;;;8.03;;
9328;SDS011;4703;48.748;19.142;2024-01-15T13:25:10;10.07;;;6.47;;
9328;SDS011;4703;48.748;19.142;2024-01-15T13:27:37;10.53;;;7.60;;
9328;SDS011;4703;48.748;19.142;2024-01-15T13:30:06;10.43;;;7.07;;
9328;SDS011;4703;48.748;19.142;2024-01-15T13:32:35;10.23;;;6.20;;
9328;SDS011;4703;48.748;19.142;2024-01-15T13:35:02;8.70;;;6.07;;
9328;SDS011;4703;48.748;19.142;2024-01-15T13:37:32;10.57;;;6.33;;
9328;SDS011;4703;48.748;19.142;2024-01-15T13:39:59;8.40;;;6.10;;
9328;SDS011;4703;48.748;19.142;2024-01-15T13:42:26;9.07;;;7.20;;
9328;SDS011;4703;48.748;19.142;2024-01-15T13:44:54;8.27;;;5.87;;
9328;SDS011;4703;48.748;19.142;2024-01-15T13:47:21;8.27;;;5.70;;
9328;SDS011;4703;48.748;19.142;2024-01-15T13:49:48;8.00;;;6.10;;
9328;SDS011;4703;48.748;19.142;2024-01-15T13:52:15;8.93;;;6.33;;
9328;SDS011;4703;48.748;19.142;2024-01-15T13:54:42;10.00;;;6.87;;
9328;SDS011;4703;48.748;19.142;2024-01-15T13:57:19;7.37;;;5.77;;
9328;SDS011;4703;48.748;19.142;2024-01-15T13:59:47;7.30;;;6.00;;
9328;SDS011;4703;48.748;19.142;2024-01-15T14:02:15;7.20;;;5.90;;
9328;SDS011;4703;48.748;19.142;2024-01-15T14:04:47;9.67;;;5.90;;
9328;SDS011;4703;48.748;19.142;2024-01-15T14:07:15;7.83;;;6.43;;
9328;SDS011;4703;48.748;19.142;2024-01-15T14:09:43;9.50;;;6.50;;
9328;SDS011;4703;48.748;19.142;2024-01-15T14:12:10;10.20;;;6.30;;
9328;SDS011;4703;48.748;19.142;2024-01-15T14:14:38;6.60;;;5.60;;
9328;SDS011;4703;48.748;19.142;2024-01-15T14:17:06;7.20;;;5.33;;
9328;SDS011;4703;48.748;19.142;2024-01-15T14:19:33;7.63;;;5.80;;
9328;SDS011;4703;48.748;19.142;2024-01-15T14:22:00;7.83;;;4.80;;
9328;SDS011;4703;48.748;19.142;2024-01-15T14:24:27;7.10;;;5.60;;
9328;SDS011;4703;48.748;19.142;2024-01-15T14:26:55;8.10;;;6.10;;
9328;SDS011;4703;48.748;19.142;2024-01-15T14:29:23;7.10;;;5.63;;
9328;SDS011;4703;48.748;19.142;2024-01-15T14:31:52;6.93;;;5.67;;
9328;SDS011;4703;48.748;19.142;2024-01-15T14:34:20;8.50;;;5.30;;
9328;SDS011;4703;48.748;19.142;2024-01-15T14:36:50;7.10;;;5.00;;
9328;SDS011;4703;48.748;19.142;2024-01-15T14:39:21;10.00;;;6.13;;
9328;SDS011;4703;48.748;19.142;2024-01-15T14:41:49;7.70;;;5.43;;
9328;SDS011;4703;48.748;19.142;2024-01-15T14:44:16;9.00;;;5.47;;
9328;SDS011;4703;48.748;19.142;2024-01-15T14:46:43;7.10;;;5.57;;
9328;SDS011;4703;48.748;19.142;2024-01-15T14:49:10;9.60;;;5.27;;
9328;SDS011;4703;48.748;19.142;2024-01-15T14:51:37;10.20;;;6.03;;
9328;SDS011;4703;48.748;19.142;2024-01-15T14:54:04;11.53;;;6.50;;
9328;SDS011;4703;48.748;19.142;2024-01-15T14:56:31;6.80;;;5.27;;
9328;SDS011;4703;48.748;19.142;2024-01-15T14:58:58;6.57;;;5.10;;
9328;SDS011;4703;48.748;19.142;2024-01-15T15:01:25;4.83;;;4.40;;
9328;SDS011;4703;48.748;19.142;2024-01-15T15:03:52;7.13;;;5.00;;
9328;SDS011;4703;48.748;19.142;2024-01-15T15:06:20;7.83;;;5.57;;
9328;SDS011;4703;48.748;19.142;2024-01-15T15:08:47;8.20;;;5.60;;
9328;SDS011;4703;48.748;19.142;2024-01-15T15:11:14;8.70;;;5.87;;
9328;SDS011;4703;48.748;19.142;2024-01-15T15:13:41;8.87;;;6.27;;
9328;SDS011;4703;48.748;19.142;2024-01-15T15:16:12;7.47;;;5.83;;
9328;SDS011;4703;48.748;19.142;2024-01-15T15:18:40;7.10;;;6.27;;
9328;SDS011;4703;48.748;19.142;2024-01-15T15:21:13;67.20;;;35.10;;
9328;SDS011;4703;48.748;19.142;2024-01-15T15:23:41;11.43;;;7.37;;
9328;SDS011;4703;48.748;19.142;2024-01-15T15:26:08;6.70;;;5.90;;
9328;SDS011;4703;48.748;19.142;2024-01-15T15:28:35;8.27;;;5.63;;
9328;SDS011;4703;48.748;19.142;2024-01-15T15:31:03;6.60;;;5.40;;
9328;SDS011;4703;48.748;19.142;2024-01-15T15:33:35;7.83;;;5.20;;
9328;SDS011;4703;48.748;19.142;2024-01-15T15:36:02;11.50;;;6.50;;
9328;SDS011;4703;48.748;19.142;2024-01-15T15:38:31;5.97;;;4.63;;
9328;SDS011;4703;48.748;19.142;2024-01-15T15:40:59;5.30;;;4.57;;
9328;SDS011;4703;48.748;19.142;2024-01-15T15:43:27;6.60;;;4.47;;
9328;SDS011;4703;48.748;19.142;2024-01-15T15:45:55;7.10;;;5.17;;
9328;SDS011;4703;48.748;19.142;2024-01-15T15:48:26;7.77;;;4.87;;
9328;SDS011;4703;48.748;19.142;2024-01-15T15:50:53;5.67;;;4.60;;
9328;SDS011;4703;48.748;19.142;2024-01-15T15:53:22;5.80;;;4.77;;
9328;SDS011;4703;48.748;19.142;2024-01-15T15:55:49;6.30;;;5.03;;
9328;SDS011;4703;48.748;19.142;2024-01-15T15:58:16;7.53;;;5.23;;
9328;SDS011;4703;48.748;19.142;2024-01-15T16:00:43;7.70;;;4.47;;
9328;SDS011;4703;48.748;19.142;2024-01-15T16:03:11;6.23;;;4.23;;
9328;SDS011;4703;48.748;19.142;2024-01-15T16:05:38;5.27;;;4.33;;
9328;SDS011;4703;48.748;19.142;2024-01-15T16:08:17;3.53;;;2.93;;
9328;SDS011;4703;48.748;19.142;2024-01-15T16:10:45;5.17;;;3.83;;
9328;SDS011;4703;48.748;19.142;2024-01-15T16:13:15;8.47;;;4.50;;
9328;SDS011;4703;48.748;19.142;2024-01-15T16:15:42;5.60;;;4.47;;
9328;SDS011;4703;48.748;19.142;2024-01-15T16:18:09;4.87;;;3.90;;
9328;SDS011;4703;48.748;19.142;2024-01-15T16:20:56;5.33;;;4.27;;
9328;SDS011;4703;48.748;19.142;2024-01-15T16:23:43;4.07;;;3.37;;
9328;SDS011;4703;48.748;19.142;2024-01-15T16:26:30;3.63;;;3.33;;
9328;SDS011;4703;48.748;19.142;2024-01-15T16:28:57;4.50;;;3.63;;
9328;SDS011;4703;48.748;19.142;2024-01-15T16:31:27;4.90;;;3.87;;
9328;SDS011;4703;48.748;19.142;2024-01-15T16:33:54;5.07;;;4.30;;
9328;SDS011;4703;48.748;19.142;2024-01-15T16:36:30;3.50;;;3.20;;
9328;SDS011;4703;48.748;19.142;2024-01-15T16:38:57;5.90;;;4.50;;
9328;SDS011;4703;48.748;19.142;2024-01-15T16:41:25;5.70;;;3.33;;
9328;SDS011;4703;48.748;19.142;2024-01-15T16:43:52;4.63;;;4.17;;
9328;SDS011;4703;48.748;19.142;2024-01-15T16:46:19;5.77;;;3.63;;
9328;SDS011;4703;48.748;19.142;2024-01-15T16:48:46;5.50;;;5.00;;
9328;SDS011;4703;48.748;19.142;2024-01-15T16:51:13;5.60;;;3.63;;
9328;SDS011;4703;48.748;19.142;2024-01-15T16:53:40;8.70;;;4.97;;
9328;SDS011;4703;48.748;19.142;2024-01-15T16:56:07;4.43;;;4.03;;
9328;SDS011;4703;48.748;19.142;2024-01-15T16:58:34;3.80;;;3.10;;
9328;SDS011;4703;48.748;19.142;2024-01-15T17:01:01;4.33;;;3.93;;
9328;SDS011;4703;48.748;19.142;2024-01-15T17:03:28;5.37;;;4.13;;
9328;SDS011;4703;48.748;19.142;2024-01-15T17:05:56;4.30;;;3.30;;
9328;SDS011;4703;48.748;19.142;2024-01-15T17:08:23;7.17;;;4.47;;
9328;SDS011;4703;48.748;19.142;2024-01-15T17:10:51;5.10;;;4.10;;
9328;SDS011;4703;48.748;19.142;2024-01-15T17:13:18;5.20;;;3.47;;
9328;SDS011;4703;48.748;19.142;2024-01-15T17:15:44;4.80;;;3.73;;
9328;SDS011;4703;48.748;19.142;2024-01-15T17:18:11;3.70;;;3.40;;
9328;SDS011;4703;48.748;19.142;2024-01-15T17:20:39;5.40;;;3.47;;
9328;SDS011;4703;48.748;19.142;2024-01-15T17:23:08;5.50;;;3.37;;
9328;SDS011;4703;48.748;19.142;2024-01-15T17:25:36;14.00;;;9.30;;
9328;SDS011;4703;48.748;19.142;2024-01-15T17:28:03;10.63;;;7.20;;
9328;SDS011;4703;48.748;19.142;2024-01-15T17:30:30;7.00;;;5.30;;
9328;SDS011;4703;48.748;19.142;2024-01-15T17:32:57;4.87;;;4.00;;
9328;SDS011;4703;48.748;19.142;2024-01-15T17:35:25;4.30;;;3.77;;
9328;SDS011;4703;48.748;19.142;2024-01-15T17:37:52;4.63;;;4.23;;
9328;SDS011;4703;48.748;19.142;2024-01-15T17:40:20;4.70;;;4.20;;
9328;SDS011;4703;48.748;19.142;2024-01-15T17:42:48;3.43;;;3.13;;
9328;SDS011;4703;48.748;19.142;2024-01-15T17:45:16;4.17;;;3.43;;
9328;SDS011;4703;48.748;19.142;2024-01-15T17:47:44;5.20;;;3.50;;
9328;SDS011;4703;48.748;19.142;2024-01-15T17:50:12;5.97;;;3.77;;
9328;SDS011;4703;48.748;19.142;2024-01-15T17:52:39;4.40;;;4.00;;
9328;SDS011;4703;48.748;19.142;2024-01-15T17:55:06;4.53;;;4.03;;
9328;SDS011;4703;48.748;19.142;2024-01-15T17:57:35;4.07;;;3.23;;
9328;SDS011;4703;48.748;19.142;2024-01-15T18:00:02;5.40;;;3.70;;
9328;SDS011;4703;48.748;19.142;2024-01-15T18:02:31;6.33;;;5.47;;
9328;SDS011;4703;48.748;19.142;2024-01-15T18:04:58;5.10;;;3.33;;
9328;SDS011;4703;48.748;19.142;2024-01-15T18:07:25;6.80;;;3.37;;
9328;SDS011;4703;48.748;19.142;2024-01-15T18:09:52;5.17;;;3.70;;
9328;SDS011;4703;48.748;19.142;2024-01-15T18:12:19;4.93;;;3.90;;
9328;SDS011;4703;48.748;19.142;2024-01-15T18:14:47;3.90;;;3.60;;
9328;SDS011;4703;48.748;19.142;2024-01-15T18:17:14;3.83;;;3.47;;
9328;SDS011;4703;48.748;19.142;2024-01-15T18:19:42;6.60;;;4.40;;
9328;SDS011;4703;48.748;19.142;2024-01-15T18:22:09;3.40;;;3.10;;
9328;SDS011;4703;48.748;19.142;2024-01-15T18:24:36;3.87;;;3.57;;
9328;SDS011;4703;48.748;19.142;2024-01-15T18:27:03;5.27;;;3.77;;
9328;SDS011;4703;48.748;19.142;2024-01-15T18:29:30;4.33;;;3.60;;
9328;SDS011;4703;48.748;19.142;2024-01-15T18:31:58;3.73;;;3.43;;
9328;SDS011;4703;48.748;19.142;2024-01-15T18:34:25;3.67;;;3.37;;
9328;SDS011;4703;48.748;19.142;2024-01-15T18:36:52;4.50;;;3.50;;
9328;SDS011;4703;48.748;19.142;2024-01-15T18:39:19;4.80;;;3.90;;
9328;SDS011;4703;48.748;19.142;2024-01-15T18:41:46;8.03;;;4.40;;
9328;SDS011;4703;48.748;19.142;2024-01-15T18:44:13;4.90;;;3.63;;
9328;SDS011;4703;48.748;19.142;2024-01-15T18:46:41;4.33;;;3.93;;
9328;SDS011;4703;48.748;19.142;2024-01-15T18:49:10;4.23;;;3.83;;
9328;SDS011;4703;48.748;19.142;2024-01-15T18:51:38;4.03;;;3.67;;
9328;SDS011;4703;48.748;19.142;2024-01-15T18:54:05;9.27;;;6.13;;
9328;SDS011;4703;48.748;19.142;2024-01-15T18:56:33;4.33;;;3.70;;
9328;SDS011;4703;48.748;19.142;2024-01-15T18:59:05;4.23;;;3.43;;
9328;SDS011;4703;48.748;19.142;2024-01-15T19:01:32;4.10;;;3.73;;
9328;SDS011;4703;48.748;19.142;2024-01-15T19:03:59;6.20;;;4.00;;
9328;SDS011;4703;48.748;19.142;2024-01-15T19:06:26;3.87;;;3.57;;
9328;SDS011;4703;48.748;19.142;2024-01-15T19:08:53;6.07;;;3.93;;
9328;SDS011;4703;48.748;19.142;2024-01-15T19:11:20;4.30;;;3.90;;
9328;SDS011;4703;48.748;19.142;2024-01-15T19:13:52;3.87;;;3.43;;
9328;SDS011;4703;48.748;19.142;2024-01-15T19:16:19;4.30;;;3.50;;
9328;SDS011;4703;48.748;19.142;2024-01-15T19:18:49;6.67;;;3.43;;
9328;SDS011;4703;48.748;19.142;2024-01-15T19:21:19;4.17;;;3.57;;
9328;SDS011;4703;48.748;19.142;2024-01-15T19:23:46;6.73;;;4.27;;
9328;SDS011;4703;48.748;19.142;2024-01-15T19:26:19;3.63;;;3.33;;
9328;SDS011;4703;48.748;19.142;2024-01-15T19:28:48;5.60;;;3.70;;
9328;SDS011;4703;48.748;19.142;2024-01-15T19:31:15;4.10;;;3.57;;
9328;SDS011;4703;48.748;19.142;2024-01-15T19:33:43;3.97;;;3.10;;
9328;SDS011;4703;48.748;19.142;2024-01-15T19:36:23;5.00;;;3.17;;
9328;SDS011;4703;48.748;19.142;2024-01-15T19:38:52;3.77;;;3.27;;
9328;SDS011;4703;48.748;19.142;2024-01-15T19:41:20;3.70;;;3.17;;
9328;SDS011;4703;48.748;19.142;2024-01-15T19:43:50;4.50;;;3.63;;
9328;SDS011;4703;48.748;19.142;2024-01-15T19:46:18;3.90;;;3.50;;
9328;SDS011;4703;48.748;19.142;2024-01-15T19:48:45;3.40;;;3.10;;
9328;SDS011;4703;48.748;19.142;2024-01-15T19:51:12;5.90;;;3.30;;
9328;SDS011;4703;48.748;19.142;2024-01-15T19:53:42;3.40;;;3.10;;
9328;SDS011;4703;48.748;19.142;2024-01-15T19:56:10;3.73;;;3.20;;
9328;SDS011;4703;48.748;19.142;2024-01-15T19:58:43;3.37;;;3.07;;
9328;SDS011;4703;48.748;19.142;2024-01-15T20:01:11;4.33;;;3.67;;
9328;SDS011;4703;48.748;19.142;2024-01-15T20:03:38;3.93;;;3.07;;
9328;SDS011;4703;48.748;19.142;2024-01-15T20:06:07;5.23;;;3.70;;
9328;SDS011;4703;48.748;19.142;2024-01-15T20:08:38;3.00;;;2.77;;
9328;SDS011;4703;48.748;19.142;2024-01-15T20:11:09;4.30;;;3.23;;
9328;SDS011;4703;48.748;19.142;2024-01-15T20:13:37;4.70;;;4.00;;
9328;SDS011;4703;48.748;19.142;2024-01-15T20:16:05;2.63;;;2.43;;
9328;SDS011;4703;48.748;19.142;2024-01-15T20:18:34;3.67;;;3.30;;
9328;SDS011;4703;48.748;19.142;2024-01-15T20:21:01;3.43;;;3.13;;
9328;SDS011;4703;48.748;19.142;2024-01-15T20:23:31;3.50;;;3.20;;
9328;SDS011;4703;48.748;19.142;2024-01-15T20:26:20;4.23;;;3.63;;
9328;SDS011;4703;48.748;19.142;2024-01-15T20:28:47;4.50;;;4.10;;
9328;SDS011;4703;48.748;19.142;2024-01-15T20:31:14;3.53;;;2.40;;
9328;SDS011;4703;48.748;19.142;2024-01-15T20:33:42;3.73;;;3.07;;
9328;SDS011;4703;48.748;19.142;2024-01-15T20:36:09;3.20;;;3.00;;
9328;SDS011;4703;48.748;19.142;2024-01-15T20:38:38;6.07;;;2.80;;
9328;SDS011;4703;48.748;19.142;2024-01-15T20:41:06;2.63;;;2.40;;
9328;SDS011;4703;48.748;19.142;2024-01-15T20:43:33;3.43;;;3.13;;
9328;SDS011;4703;48.748;19.142;2024-01-15T20:46:01;4.03;;;2.80;;
9328;SDS011;4703;48.748;19.142;2024-01-15T20:48:29;3.23;;;3.00;;
9328;SDS011;4703;48.748;19.142;2024-01-15T20:50:56;3.03;;;2.80;;
9328;SDS011;4703;48.748;19.142;2024-01-15T20:53:24;22.10;;;17.43;;
9328;SDS011;4703;48.748;19.142;2024-01-15T20:55:51;4.17;;;3.33;;
9328;SDS011;4703;48.748;19.142;2024-01-15T20:58:22;3.47;;;2.77;;
9328;SDS011;4703;48.748;19.142;2024-01-15T21:00:49;6.07;;;3.80;;
9328;SDS011;4703;48.748;19.142;2024-01-15T21:03:17;3.63;;;3.30;;
9328;SDS011;4703;48.748;19.142;2024-01-15T21:05:44;6.50;;;4.33;;
9328;SDS011;4703;48.748;19.142;2024-01-15T21:08:12;5.43;;;3.67;;
9328;SDS011;4703;48.748;19.142;2024-01-15T21:10:41;3.27;;;2.93;;
9328;SDS011;4703;48.748;19.142;2024-01-15T21:13:08;3.43;;;3.13;;
9328;SDS011;4703;48.748;19.142;2024-01-15T21:15:35;3.90;;;3.50;;
9328;SDS011;4703;48.748;19.142;2024-01-15T21:18:02;4.67;;;3.27;;
9328;SDS011;4703;48.748;19.142;2024-01-15T21:20:32;3.13;;;2.63;;
9328;SDS011;4703;48.748;19.142;2024-01-15T21:22:59;5.07;;;3.03;;
9328;SDS011;4703;48.748;19.142;2024-01-15T21:25:27;4.60;;;3.23;;
9328;SDS011;4703;48.748;19.142;2024-01-15T21:27:53;4.90;;;3.47;;
9328;SDS011;4703;48.748;19.142;2024-01-15T21:30:21;2.97;;;2.77;;
9328;SDS011;4703;48.748;19.142;2024-01-15T21:32:48;4.50;;;2.97;;
9328;SDS011;4703;48.748;19.142;2024-01-15T21:35:16;2.70;;;2.50;;
9328;SDS011;4703;48.748;19.142;2024-01-15T21:37:43;3.20;;;2.50;;
9328;SDS011;4703;48.748;19.142;2024-01-15T21:40:10;2.70;;;2.50;;
9328;SDS011;4703;48.748;19.142;2024-01-15T21:42:37;3.70;;;2.73;;
9328;SDS011;4703;48.748;19.142;2024-01-15T21:45:06;3.83;;;3.27;;
9328;SDS011;4703;48.748;19.142;2024-01-15T21:47:35;3.13;;;2.83;;
9328;SDS011;4703;48.748;19.142;2024-01-15T21:50:04;4.30;;;3.47;;
9328;SDS011;4703;48.748;19.142;2024-01-15T21:52:32;4.50;;;2.77;;
9328;SDS011;4703;48.748;19.142;2024-01-15T21:54:59;4.00;;;3.27;;
9328;SDS011;4703;48.748;19.142;2024-01-15T21:57:26;3.10;;;2.80;;
9328;SDS011;4703;48.748;19.142;2024-01-15T21:59:52;2.97;;;2.73;;
9328;SDS011;4703;48.748;19.142;2024-01-15T22:02:20;4.07;;;3.17;;
9328;SDS011;4703;48.748;19.142;2024-01-15T22:04:47;3.27;;;2.57;;
9328;SDS011;4703;48.748;19.142;2024-01-15T22:07:14;4.00;;;2.93;;
9328;SDS011;4703;48.748;19.142;2024-01-15T22:09:41;3.40;;;3.10;;
9328;SDS011;4703;48.748;19.142;2024-01-15T22:12:08;3.50;;;3.20;;
9328;SDS011;4703;48.748;19.142;2024-01-15T22:14:35;3.13;;;2.83;;
9328;SDS011;4703;48.748;19.142;2024-01-15T22:17:02;2.27;;;2.10;;
9328;SDS011;4703;48.748;19.142;2024-01-15T22:19:29;2.73;;;2.53;;
9328;SDS011;4703;48.748;19.142;2024-01-15T22:22:00;3.20;;;3.00;;
9328;SDS011;4703;48.748;19.142;2024-01-15T22:24:27;2.73;;;2.53;;
9328;SDS011;4703;48.748;19.142;2024-01-15T22:26:54;3.60;;;3.30;;
9328;SDS011;4703;48.748;19.142;2024-01-15T22:29:21;5.00;;;3.93;;
9328;SDS011;4703;48.748;19.142;2024-01-15T22:31:48;3.83;;;3.43;;
9328;SDS011;4703;48.748;19.142;2024-01-15T22:34:15;3.20;;;2.80;;
9328;SDS011;4703;48.748;19.142;2024-01-15T22:36:44;4.30;;;3.90;;
9328;SDS011;4703;48.748;19.142;2024-01-15T22:39:11;3.17;;;2.93;;
9328;SDS011;4703;48.748;19.142;2024-01-15T22:41:40;3.10;;;2.80;;
9328;SDS011;4703;48.748;19.142;2024-01-15T22:44:07;4.60;;;3.30;;
9328;SDS011;4703;48.748;19.142;2024-01-15T22:46:34;5.20;;;3.70;;
9328;SDS011;4703;48.748;19.142;2024-01-15T22:49:01;2.60;;;2.40;;
9328;SDS011;4703;48.748;19.142;2024-01-15T22:51:28;2.80;;;2.60;;
9328;SDS011;4703;48.748;19.142;2024-01-15T22:53:55;5.13;;;3.93;;
9328;SDS011;4703;48.748;19.142;2024-01-15T22:56:22;2.90;;;2.70;;
9328;SDS011;4703;48.748;19.142;2024-01-15T22:58:49;5.23;;;3.53;;
9328;SDS011;4703;48.748;19.142;2024-01-15T23:01:16;4.20;;;3.80;;
9328;SDS011;4703;48.748;19.142;2024-01-15T23:03:43;3.30;;;3.00;;
9328;SDS011;4703;48.748;19.142;2024-01-15T23:06:19;3.83;;;3.20;;
9328;SDS011;4703;48.748;19.142;2024-01-15T23:08:47;4.67;;;3.80;;